Terminal Aerodrome Forecast
Issued by NWS North Platte, NE

Home | Current Version | Previous Version | Text Only | Print | Product List | Glossary Off
Versions: 1 2 3 4 5 6 7 8 9 10 11 12 13 14 15 16 17 18 19 20 21 22 23 24 25 26 27 28 29

000
FTUS43 KLBF 021100
TAFVTN
TAF
KVTN 021136Z 0212/0312 26006KT P6SM SKC
     FM021300 21010KT P6SM SKC
     FM022100 17011KT P6SM SCT120
     FM030600 18014KT P6SM SCT120=

USA.gov is the U.S. government's official web portal to all federal, state and local government web resources and services.